sensor_id;sensor_type;location;lat;lon;timestamp;temperature;humidity
22878;DHT22;11606;45.404;12.148;2022-08-14T16:07:51;28.70;94.50
22878;DHT22;11606;45.404;12.148;2022-08-14T16:10:17;28.70;95.00
22878;DHT22;11606;45.404;12.148;2022-08-14T16:12:44;28.80;94.90
22878;DHT22;11606;45.404;12.148;2022-08-14T16:15:10;28.80;95.00
22878;DHT22;11606;45.404;12.148;2022-08-14T16:17:37;28.80;94.90
22878;DHT22;11606;45.404;12.148;2022-08-14T16:20:05;28.70;94.30
22878;DHT22;11606;45.404;12.148;2022-08-14T16:22:31;28.70;94.20
22878;DHT22;11606;45.404;12.148;2022-08-14T16:25:00;28.70;94.60
22878;DHT22;11606;45.404;12.148;2022-08-14T16:27:26;28.70;94.60
22878;DHT22;11606;45.404;12.148;2022-08-14T16:29:52;28.70;94.20
22878;DHT22;11606;45.404;12.148;2022-08-14T16:32:18;28.80;93.80
22878;DHT22;11606;45.404;12.148;2022-08-14T16:34:44;28.80;94.00
22878;DHT22;11606;45.404;12.148;2022-08-14T16:37:15;28.80;94.20
22878;DHT22;11606;45.404;12.148;2022-08-14T16:39:44;28.80;93.80
22878;DHT22;11606;45.404;12.148;2022-08-14T16:42:12;28.90;94.30
22878;DHT22;11606;45.404;12.148;2022-08-14T16:44:39;28.80;94.10
22878;DHT22;11606;45.404;12.148;2022-08-14T16:47:08;28.80;94.30
22878;DHT22;11606;45.404;12.148;2022-08-14T16:49:35;28.80;94.50
22878;DHT22;11606;45.404;12.148;2022-08-14T16:52:06;28.70;94.80
22878;DHT22;11606;45.404;12.148;2022-08-14T16:54:32;28.70;94.60
22878;DHT22;11606;45.404;12.148;2022-08-14T16:57:30;28.70;94.30
22878;DHT22;11606;45.404;12.148;2022-08-14T16:59:58;28.60;94.20
22878;DHT22;11606;45.404;12.148;2022-08-14T17:02:41;28.60;94.40
22878;DHT22;11606;45.404;12.148;2022-08-14T17:05:14;28.60;94.60
22878;DHT22;11606;45.404;12.148;2022-08-14T17:07:42;28.60;94.70
22878;DHT22;11606;45.404;12.148;2022-08-14T17:10:27;28.60;94.40
22878;DHT22;11606;45.404;12.148;2022-08-14T17:13:16;28.50;94.30
22878;DHT22;11606;45.404;12.148;2022-08-14T17:18:43;28.40;94.30
22878;DHT22;11606;45.404;12.148;2022-08-14T17:23:57;28.30;94.70
22878;DHT22;11606;45.404;12.148;2022-08-14T17:26:39;28.20;94.50
22878;DHT22;11606;45.404;12.148;2022-08-14T17:29:24;28.20;94.80
22878;DHT22;11606;45.404;12.148;2022-08-14T17:31:57;28.10;95.10
22878;DHT22;11606;45.404;12.148;2022-08-14T17:34:48;28.10;95.30
22878;DHT22;11606;45.404;12.148;2022-08-14T17:45:11;27.90;95.40
22878;DHT22;11606;45.404;12.148;2022-08-14T17:47:37;27.90;95.20
22878;DHT22;11606;45.404;12.148;2022-08-14T17:50:04;27.80;94.90
22878;DHT22;11606;45.404;12.148;2022-08-14T17:52:35;27.80;94.00
22878;DHT22;11606;45.404;12.148;2022-08-14T17:55:02;27.80;93.80
22878;DHT22;11606;45.404;12.148;2022-08-14T17:57:28;27.70;93.20
22878;DHT22;11606;45.404;12.148;2022-08-14T17:59:58;27.70;93.10
22878;DHT22;11606;45.404;12.148;2022-08-14T18:02:27;27.70;93.10
22878;DHT22;11606;45.404;12.148;2022-08-14T18:04:55;27.60;93.00
22878;DHT22;11606;45.404;12.148;2022-08-14T18:07:26;27.70;93.30
22878;DHT22;11606;45.404;12.148;2022-08-14T18:09:56;27.60;93.40
22878;DHT22;11606;45.404;12.148;2022-08-14T18:12:23;27.60;93.60
22878;DHT22;11606;45.404;12.148;2022-08-14T18:14:50;27.60;93.80
22878;DHT22;11606;45.404;12.148;2022-08-14T18:17:16;27.60;93.90
22878;DHT22;11606;45.404;12.148;2022-08-14T18:19:47;27.50;94.00
22878;DHT22;11606;45.404;12.148;2022-08-14T18:22:15;27.50;94.20
22878;DHT22;11606;45.404;12.148;2022-08-14T18:24:44;27.40;94.40
22878;DHT22;11606;45.404;12.148;2022-08-14T18:29:42;27.30;94.90
22878;DHT22;11606;45.404;12.148;2022-08-14T18:35:01;27.30;95.30
22878;DHT22;11606;45.404;12.148;2022-08-14T18:37:27;27.20;95.50
22878;DHT22;11606;45.404;12.148;2022-08-14T18:42:47;27.20;95.80
22878;DHT22;11606;45.404;12.148;2022-08-14T18:45:27;27.10;95.90
22878;DHT22;11606;45.404;12.148;2022-08-14T18:51:01;27.10;96.10
22878;DHT22;11606;45.404;12.148;2022-08-14T18:53:28;27.00;96.20
22878;DHT22;11606;45.404;12.148;2022-08-14T18:55:57;27.00;96.30
22878;DHT22;11606;45.404;12.148;2022-08-14T18:58:49;27.10;96.40
22878;DHT22;11606;45.404;12.148;2022-08-14T19:01:25;27.10;96.40
22878;DHT22;11606;45.404;12.148;2022-08-14T19:03:55;27.00;96.30
22878;DHT22;11606;45.404;12.148;2022-08-14T19:06:43;27.00;96.30
22878;DHT22;11606;45.404;12.148;2022-08-14T19:15:23;26.90;96.20
22878;DHT22;11606;45.404;12.148;2022-08-14T19:17:50;26.80;96.40
22878;DHT22;11606;45.404;12.148;2022-08-14T19:20:16;26.70;96.40
22878;DHT22;11606;45.404;12.148;2022-08-14T19:22:42;26.70;96.50
22878;DHT22;11606;45.404;12.148;2022-08-14T19:28:23;26.70;96.60
22878;DHT22;11606;45.404;12.148;2022-08-14T19:33:55;26.60;96.40
22878;DHT22;11606;45.404;12.148;2022-08-14T19:36:23;26.60;96.50
22878;DHT22;11606;45.404;12.148;2022-08-14T19:41:26;26.50;96.50
22878;DHT22;11606;45.404;12.148;2022-08-14T19:43:53;26.40;96.60
22878;DHT22;11606;45.404;12.148;2022-08-14T19:46:29;26.30;96.50
22878;DHT22;11606;45.404;12.148;2022-08-14T19:48:56;26.20;96.40
22878;DHT22;11606;45.404;12.148;2022-08-14T19:51:23;26.00;96.40
22878;DHT22;11606;45.404;12.148;2022-08-14T19:53:51;25.90;96.30
22878;DHT22;11606;45.404;12.148;2022-08-14T19:56:17;25.80;96.50
22878;DHT22;11606;45.404;12.148;2022-08-14T19:58:44;25.60;96.40
22878;DHT22;11606;45.404;12.148;2022-08-14T20:01:10;25.50;96.70
22878;DHT22;11606;45.404;12.148;2022-08-14T20:03:43;25.30;97.00
22878;DHT22;11606;45.404;12.148;2022-08-14T20:06:22;25.40;97.20
22878;DHT22;11606;45.404;12.148;2022-08-14T20:08:59;25.40;97.30
22878;DHT22;11606;45.404;12.148;2022-08-14T20:11:33;25.40;97.20
22878;DHT22;11606;45.404;12.148;2022-08-14T20:14:03;25.40;97.30
22878;DHT22;11606;45.404;12.148;2022-08-14T20:16:35;25.40;97.30
22878;DHT22;11606;45.404;12.148;2022-08-14T20:21:34;25.40;97.10
22878;DHT22;11606;45.404;12.148;2022-08-14T20:24:15;25.30;96.90
22878;DHT22;11606;45.404;12.148;2022-08-14T20:26:43;25.20;96.80
22878;DHT22;11606;45.404;12.148;2022-08-14T20:29:23;25.00;97.00
22878;DHT22;11606;45.404;12.148;2022-08-14T20:31:55;24.90;96.90
22878;DHT22;11606;45.404;12.148;2022-08-14T20:34:31;24.80;97.40
22878;DHT22;11606;45.404;12.148;2022-08-14T20:37:04;25.00;97.70
22878;DHT22;11606;45.404;12.148;2022-08-14T20:39:43;25.10;97.70
22878;DHT22;11606;45.404;12.148;2022-08-14T20:42:13;25.30;97.70
22878;DHT22;11606;45.404;12.148;2022-08-14T20:45:00;25.40;97.60
22878;DHT22;11606;45.404;12.148;2022-08-14T20:47:49;25.40;97.60
22878;DHT22;11606;45.404;12.148;2022-08-14T20:50:22;25.50;97.60
22878;DHT22;11606;45.404;12.148;2022-08-14T20:52:48;25.50;97.50
22878;DHT22;11606;45.404;12.148;2022-08-14T20:55:24;25.50;97.30
22878;DHT22;11606;45.404;12.148;2022-08-14T20:57:55;25.20;97.50
22878;DHT22;11606;45.404;12.148;2022-08-14T21:00:37;25.20;97.80
22878;DHT22;11606;45.404;12.148;2022-08-14T21:03:29;25.00;97.80
22878;DHT22;11606;45.404;12.148;2022-08-14T21:06:02;25.00;98.00
22878;DHT22;11606;45.404;12.148;2022-08-14T21:08:29;25.00;98.30
22878;DHT22;11606;45.404;12.148;2022-08-14T21:10:56;25.00;98.50
22878;DHT22;11606;45.404;12.148;2022-08-14T21:13:23;25.10;98.50
22878;DHT22;11606;45.404;12.148;2022-08-14T21:15:51;25.20;98.60
22878;DHT22;11606;45.404;12.148;2022-08-14T21:18:17;25.30;98.60
22878;DHT22;11606;45.404;12.148;2022-08-14T21:20:43;25.40;98.60
22878;DHT22;11606;45.404;12.148;2022-08-14T21:23:11;25.40;98.30
22878;DHT22;11606;45.404;12.148;2022-08-14T21:25:39;25.20;98.20
22878;DHT22;11606;45.404;12.148;2022-08-14T21:28:07;25.10;98.40
22878;DHT22;11606;45.404;12.148;2022-08-14T21:30:35;24.90;98.80
22878;DHT22;11606;45.404;12.148;2022-08-14T21:33:01;24.90;99.10
22878;DHT22;11606;45.404;12.148;2022-08-14T21:35:27;24.90;99.40
22878;DHT22;11606;45.404;12.148;2022-08-14T21:37:54;24.90;99.60
22878;DHT22;11606;45.404;12.148;2022-08-14T21:40:26;24.90;99.70
22878;DHT22;11606;45.404;12.148;2022-08-14T21:42:52;24.90;99.80
22878;DHT22;11606;45.404;12.148;2022-08-14T21:45:19;24.90;99.80
22878;DHT22;11606;45.404;12.148;2022-08-14T21:47:45;25.00;99.80
22878;DHT22;11606;45.404;12.148;2022-08-14T21:50:11;25.00;99.70
22878;DHT22;11606;45.404;12.148;2022-08-14T21:52:41;25.10;99.90
22878;DHT22;11606;45.404;12.148;2022-08-14T21:55:18;25.10;99.90
22878;DHT22;11606;45.404;12.148;2022-08-14T21:57:47;25.10;99.80
22878;DHT22;11606;45.404;12.148;2022-08-14T22:00:17;25.10;99.90
22878;DHT22;11606;45.404;12.148;2022-08-14T22:02:49;25.10;99.90
22878;DHT22;11606;45.404;12.148;2022-08-14T22:05:17;25.10;99.90
22878;DHT22;11606;45.404;12.148;2022-08-14T22:07:45;25.00;99.90
22878;DHT22;11606;45.404;12.148;2022-08-14T22:10:17;25.00;99.90
22878;DHT22;11606;45.404;12.148;2022-08-14T22:12:43;25.10;99.90
22878;DHT22;11606;45.404;12.148;2022-08-14T22:15:12;25.10;99.90
22878;DHT22;11606;45.404;12.148;2022-08-14T22:17:38;25.10;99.90
22878;DHT22;11606;45.404;12.148;2022-08-14T22:20:05;25.20;99.90
22878;DHT22;11606;45.404;12.148;2022-08-14T22:22:38;25.20;99.90
22878;DHT22;11606;45.404;12.148;2022-08-14T22:25:05;25.20;99.90
22878;DHT22;11606;45.404;12.148;2022-08-14T22:27:37;25.10;99.70
22878;DHT22;11606;45.404;12.148;2022-08-14T22:30:10;25.00;99.90
22878;DHT22;11606;45.404;12.148;2022-08-14T22:32:37;24.90;99.60
22878;DHT22;11606;45.404;12.148;2022-08-14T22:35:04;24.70;99.80
22878;DHT22;11606;45.404;12.148;2022-08-14T22:37:29;24.70;99.90
22878;DHT22;11606;45.404;12.148;2022-08-14T22:39:56;24.70;99.90
22878;DHT22;11606;45.404;12.148;2022-08-14T22:42:22;24.70;99.90
22878;DHT22;11606;45.404;12.148;2022-08-14T22:44:48;24.80;99.90
22878;DHT22;11606;45.404;12.148;2022-08-14T22:47:14;24.80;99.90
22878;DHT22;11606;45.404;12.148;2022-08-14T22:49:40;24.90;99.90
22878;DHT22;11606;45.404;12.148;2022-08-14T22:52:08;24.90;99.90
22878;DHT22;11606;45.404;12.148;2022-08-14T22:54:35;24.90;99.90
22878;DHT22;11606;45.404;12.148;2022-08-14T22:57:03;24.80;99.90
22878;DHT22;11606;45.404;12.148;2022-08-14T22:59:29;24.80;99.90
22878;DHT22;11606;45.404;12.148;2022-08-14T23:01:59;24.80;99.90
22878;DHT22;11606;45.404;12.148;2022-08-14T23:04:28;24.70;99.90
22878;DHT22;11606;45.404;12.148;2022-08-14T23:06:54;24.60;99.90
22878;DHT22;11606;45.404;12.148;2022-08-14T23:09:20;24.50;99.90
22878;DHT22;11606;45.404;12.148;2022-08-14T23:11:47;24.50;99.90
22878;DHT22;11606;45.404;12.148;2022-08-14T23:14:18;24.40;99.90
22878;DHT22;11606;45.404;12.148;2022-08-14T23:16:45;24.40;99.90
22878;DHT22;11606;45.404;12.148;2022-08-14T23:19:11;24.40;99.90
22878;DHT22;11606;45.404;12.148;2022-08-14T23:21:38;24.50;99.90
22878;DHT22;11606;45.404;12.148;2022-08-14T23:24:05;24.50;99.90
22878;DHT22;11606;45.404;12.148;2022-08-14T23:26:31;24.50;99.90
22878;DHT22;11606;45.404;12.148;2022-08-14T23:28:59;24.40;99.90
22878;DHT22;11606;45.404;12.148;2022-08-14T23:31:26;24.40;99.90
22878;DHT22;11606;45.404;12.148;2022-08-14T23:33:54;24.40;99.90
22878;DHT22;11606;45.404;12.148;2022-08-14T23:36:22;24.40;99.90
22878;DHT22;11606;45.404;12.148;2022-08-14T23:38:49;24.40;99.90
22878;DHT22;11606;45.404;12.148;2022-08-14T23:41:15;24.30;99.90
22878;DHT22;11606;45.404;12.148;2022-08-14T23:43:44;24.40;99.90
22878;DHT22;11606;45.404;12.148;2022-08-14T23:46:14;24.50;99.90
22878;DHT22;11606;45.404;12.148;2022-08-14T23:48:40;24.60;99.90
22878;DHT22;11606;45.404;12.148;2022-08-14T23:51:07;24.60;99.90
22878;DHT22;11606;45.404;12.148;2022-08-14T23:53:35;24.70;99.90
22878;DHT22;11606;45.404;12.148;2022-08-14T23:56:04;24.80;99.90
22878;DHT22;11606;45.404;12.148;2022-08-14T23:58:31;24.80;99.90
